Time;durP1;ratioP1;P1;durP2;ratioP2;P2;SDS_P1;SDS_P2;PMS_P1;PMS_P2;Temp;Humidity;BMP_temperature;BMP_pressure;BME280_temperature;BME280_humidity;BME280_pressure;Samples;Min_cycle;Max_cycle;Signal;HPM_P1;HPM_P2
2022/03/12 00:01:39;;;;;;;3.83;2.63;;;;;;;18.33;37.30;101352.53;5120372;28;20076;-58
2022/03/12 00:04:06;;;;;;;3.97;2.75;;;;;;;18.32;37.33;101352.69;5120854;28;20028;-58
2022/03/12 00:06:31;;;;;;;4.35;2.80;;;;;;;18.31;37.30;101362.63;5120394;28;20282;-58
2022/03/12 00:08:57;;;;;;;3.80;2.72;;;;;;;18.30;37.39;101366.28;5119830;28;20245;-57
2022/03/12 00:11:24;;;;;;;3.42;2.92;;;;;;;18.29;37.15;101351.13;5120903;28;20721;-58
2022/03/12 00:13:50;;;;;;;3.13;2.70;;;;;;;18.27;37.25;101352.31;5120172;28;20028;-58
2022/03/12 00:16:21;;;;;;;3.28;2.38;;;;;;;18.24;37.24;101351.59;5119624;28;20039;-58
2022/03/12 00:18:54;;;;;;;3.25;2.90;;;;;;;18.26;37.15;101358.66;5120632;28;20036;-57
2022/03/12 00:21:23;;;;;;;3.70;2.47;;;;;;;18.21;37.63;101346.50;5119045;28;20048;-58
2022/03/12 00:23:50;;;;;;;3.63;2.63;;;;;;;18.22;37.27;101356.31;5119837;28;20027;-58
2022/03/12 00:26:16;;;;;;;2.67;2.42;;;;;;;18.19;37.07;101351.22;5120339;28;20023;-59
2022/03/12 00:28:42;;;;;;;3.10;2.60;;;;;;;18.22;37.32;101363.50;5120197;28;20028;-58
2022/03/12 00:31:08;;;;;;;3.33;2.42;;;;;;;18.16;37.38;101356.06;5118117;28;20116;-59
2022/03/12 00:33:33;;;;;;;3.03;2.30;;;;;;;18.18;37.23;101360.31;5120315;28;20028;-58
2022/03/12 00:35:59;;;;;;;2.75;2.45;;;;;;;18.17;37.20;101366.66;5120156;28;20027;-58
2022/03/12 00:38:24;;;;;;;3.10;2.13;;;;;;;18.16;37.26;101358.75;5120276;28;20110;-59
2022/03/12 00:40:50;;;;;;;3.15;2.35;;;;;;;18.15;37.21;101357.91;5119439;28;20030;-58
2022/03/12 00:43:16;;;;;;;3.80;2.53;;;;;;;18.14;37.32;101364.28;5119997;28;20028;-56
2022/03/12 00:45:42;;;;;;;3.13;2.53;;;;;;;18.11;37.33;101361.06;5118983;28;20046;-59
2022/03/12 00:48:07;;;;;;;2.30;2.05;;;;;;;18.13;37.39;101359.03;5120342;28;20182;-58
2022/03/12 00:50:33;;;;;;;2.95;2.20;;;;;;;17.99;37.26;101342.44;5119929;28;20473;-59
2022/03/12 00:52:58;;;;;;;3.45;2.60;;;;;;;18.11;37.24;101364.59;5119972;28;20424;-58
2022/03/12 00:55:23;;;;;;;2.85;2.10;;;;;;;18.10;37.55;101344.06;5120190;28;20035;-58
2022/03/12 00:57:49;;;;;;;2.85;2.42;;;;;;;18.09;37.30;101360.34;5119865;28;20459;-59
2022/03/12 01:00:17;;;;;;;3.35;2.55;;;;;;;18.08;37.33;101367.56;5118821;28;20031;-59
2022/03/12 01:02:43;;;;;;;2.45;1.98;;;;;;;18.08;37.19;101369.44;5118548;28;20027;-59
2022/03/12 01:05:09;;;;;;;3.08;2.15;;;;;;;18.07;37.26;101365.88;5120049;28;20455;-58
2022/03/12 01:07:34;;;;;;;3.05;2.65;;;;;;;18.05;37.19;101364.34;5120167;28;20062;-59
2022/03/12 01:09:59;;;;;;;2.53;2.00;;;;;;;18.05;37.32;101369.72;5119467;28;20075;-60
2022/03/12 01:12:25;;;;;;;2.72;2.10;;;;;;;18.03;37.36;101367.19;5119894;28;20031;-59
2022/03/12 01:14:50;;;;;;;2.60;2.10;;;;;;;18.03;37.16;101367.19;5118770;28;20030;-57
2022/03/12 01:17:15;;;;;;;2.25;2.05;;;;;;;18.02;37.38;101360.13;5119455;28;20019;-59
2022/03/12 01:19:41;;;;;;;2.70;2.08;;;;;;;18.02;37.71;101359.28;5119730;28;20035;-59
2022/03/12 01:22:06;;;;;;;2.65;2.03;;;;;;;18.01;37.21;101362.94;5119832;28;20390;-58
2022/03/12 01:24:34;;;;;;;2.42;2.17;;;;;;;17.98;37.29;101364.97;5119032;28;20061;-59
2022/03/12 01:26:59;;;;;;;2.97;2.20;;;;;;;17.99;37.23;101368.50;5118369;28;20147;-60
2022/03/12 01:29:25;;;;;;;2.67;2.10;;;;;;;17.98;37.41;101364.97;5119210;28;20062;-59
2022/03/12 01:31:50;;;;;;;2.47;2.22;;;;;;;17.98;37.26;101364.13;5119216;28;20028;-59
2022/03/12 01:34:16;;;;;;;2.30;2.10;;;;;;;17.97;37.46;101363.28;5119778;28;20095;-57
2022/03/12 01:36:41;;;;;;;2.72;2.00;;;;;;;17.97;37.30;101374.03;5119696;28;20023;-58
2022/03/12 01:39:06;;;;;;;3.30;2.50;;;;;;;17.96;37.37;101364.25;5119356;28;20414;-58
2022/03/12 01:41:34;;;;;;;2.75;2.42;;;;;;;17.95;37.23;101369.78;5119901;28;20110;-58
2022/03/12 01:44:00;;;;;;;2.58;2.20;;;;;;;17.96;37.23;101364.25;5118445;28;20043;-58
2022/03/12 01:46:32;;;;;;;3.53;2.20;;;;;;;17.96;37.22;101366.09;5118985;28;20036;-58
2022/03/12 01:48:59;;;;;;;3.55;2.42;;;;;;;17.91;37.14;101361.16;5119532;28;20459;-58
2022/03/12 01:51:25;;;;;;;2.75;2.22;;;;;;;17.94;36.92;101368.94;5119773;28;20091;-58
2022/03/12 01:53:50;;;;;;;2.33;1.92;;;;;;;17.94;37.25;101366.25;5121053;28;20059;-58
2022/03/12 01:56:15;;;;;;;2.45;1.83;;;;;;;17.94;37.00;101362.72;5122936;28;20028;-58
2022/03/12 01:58:46;;;;;;;4.13;2.63;;;;;;;17.94;37.13;101365.41;5123020;28;20054;-58
2022/03/12 02:01:13;;;;;;;2.17;1.92;;;;;;;17.94;36.99;101373.47;5121862;28;20061;-58
2022/03/12 02:03:38;;;;;;;2.20;1.90;;;;;;;17.92;37.19;101367.38;5123079;28;20028;-57
2022/03/12 02:06:04;;;;;;;2.55;2.20;;;;;;;17.92;37.03;101370.94;5121481;28;20030;-58
2022/03/12 02:08:29;;;;;;;3.05;2.30;;;;;;;17.91;37.06;101365.72;5122687;28;20555;-58
2022/03/12 02:10:59;;;;;;;2.95;2.05;;;;;;;17.90;37.26;101367.56;5122967;28;20032;-58
2022/03/12 02:13:25;;;;;;;3.03;2.22;;;;;;;17.90;37.14;101372.94;5122514;28;20031;-58
2022/03/12 02:16:03;;;;;;;1.77;1.67;;;;;;;17.91;37.30;101371.94;5121517;28;20035;-58
2022/03/12 02:18:29;;;;;;;2.58;1.77;;;;;;;17.87;37.11;101367.84;5123213;28;20027;-58
2022/03/12 02:20:54;;;;;;;2.20;1.80;;;;;;;17.89;36.99;101371.25;5122486;28;20397;-57
2022/03/12 02:23:19;;;;;;;2.28;2.08;;;;;;;17.88;36.89;101376.75;5122674;28;20028;-57
2022/03/12 02:25:44;;;;;;;3.35;2.20;;;;;;;17.88;37.29;101374.06;5122491;28;20490;-57
2022/03/12 02:28:15;;;;;;;3.17;2.13;;;;;;;17.85;36.97;101375.22;5122620;28;20498;-59
2022/03/12 02:30:51;;;;;;;2.28;1.90;;;;;;;17.87;37.15;101389.38;5121256;28;20028;-57
2022/03/12 02:33:26;;;;;;;2.00;1.80;;;;;;;17.85;37.04;101390.53;5122171;28;20066;-59
2022/03/12 02:35:52;;;;;;;2.90;2.30;;;;;;;17.83;36.98;101382.59;5122441;28;20106;-58
2022/03/12 02:38:18;;;;;;;3.25;2.35;;;;;;;17.85;37.06;101382.47;5122513;28;20049;-58
2022/03/12 02:40:45;;;;;;;2.75;2.33;;;;;;;17.85;36.95;101396.75;5122116;28;20515;-58
2022/03/12 02:43:13;;;;;;;2.97;2.10;;;;;;;17.84;37.00;101392.38;5122037;28;20084;-57
2022/03/12 02:45:39;;;;;;;3.00;2.10;;;;;;;17.85;36.94;101396.75;5121051;28;20048;-59
2022/03/12 02:48:06;;;;;;;2.42;2.00;;;;;;;17.84;36.95;101400.44;5122492;28;20031;-58
2022/03/12 02:50:32;;;;;;;2.58;2.17;;;;;;;17.81;36.98;101389.97;5120591;28;20039;-58
2022/03/12 02:52:57;;;;;;;2.10;1.90;;;;;;;17.84;36.96;101388.81;5121975;28;20106;-58
2022/03/12 02:55:23;;;;;;;2.17;1.90;;;;;;;17.83;36.97;101395.19;5121873;28;20036;-58
2022/03/12 02:57:49;;;;;;;1.80;1.65;;;;;;;17.83;36.91;101403.25;5121795;28;20050;-58
2022/03/12 03:00:16;;;;;;;2.15;1.90;;;;;;;17.83;37.01;101400.56;5120650;28;20065;-57
2022/03/12 03:02:42;;;;;;;2.08;1.85;;;;;;;17.83;36.89;101403.25;5121625;28;20023;-57
2022/03/12 03:05:12;;;;;;;2.40;1.95;;;;;;;17.82;36.85;101405.13;5122051;28;20087;-57
2022/03/12 03:07:37;;;;;;;2.10;1.67;;;;;;;17.82;36.85;101418.56;5122056;28;20046;-58
2022/03/12 03:10:03;;;;;;;1.90;1.80;;;;;;;17.81;36.90;101414.19;5121239;28;20027;-58
2022/03/12 03:12:30;;;;;;;2.30;2.00;;;;;;;17.81;36.92;101410.66;5121871;27;20092;-58
2022/03/12 03:14:55;;;;;;;2.72;2.38;;;;;;;17.80;36.86;101409.81;5121028;28;20028;-58
2022/03/12 03:17:22;;;;;;;2.17;1.73;;;;;;;17.77;36.92;101412.78;5120885;28;20032;-57
2022/03/12 03:19:47;;;;;;;2.13;1.70;;;;;;;17.79;36.82;101416.16;5121590;28;20039;-58
2022/03/12 03:22:13;;;;;;;3.30;2.10;;;;;;;17.78;36.98;101411.78;5121594;28;20059;-58
2022/03/12 03:24:38;;;;;;;2.40;2.20;;;;;;;17.79;36.85;101413.47;5121295;28;20042;-58
2022/03/12 03:27:04;;;;;;;2.88;1.80;;;;;;;17.77;36.79;101407.41;5121760;28;20047;-58
2022/03/12 03:29:31;;;;;;;2.10;1.90;;;;;;;17.77;36.80;101411.94;5120781;28;20031;-58
2022/03/12 03:32:01;;;;;;;2.25;2.00;;;;;;;17.78;36.89;101419.00;5110459;28;20059;-58
2022/03/12 03:34:26;;;;;;;2.35;1.67;;;;;;;17.77;36.94;101415.47;5101374;28;20032;-58
2022/03/12 03:36:52;;;;;;;2.70;2.33;;;;;;;17.76;36.84;101415.63;5100895;28;20019;-58
2022/03/12 03:39:17;;;;;;;2.25;1.95;;;;;;;17.76;36.75;101407.56;5100844;28;20139;-58
2022/03/12 03:41:43;;;;;;;3.10;2.00;;;;;;;17.74;36.73;101413.91;5100974;28;20046;-58
2022/03/12 03:44:09;;;;;;;2.33;2.00;;;;;;;17.74;36.95;101424.69;5099928;28;20054;-58
2022/03/12 03:46:35;;;;;;;1.98;1.77;;;;;;;17.73;36.92;101422.97;5099960;28;20063;-58
2022/03/12 03:49:01;;;;;;;2.25;1.75;;;;;;;17.74;36.83;101431.91;5106737;28;20087;-59
2022/03/12 03:51:27;;;;;;;2.13;1.80;;;;;;;17.68;36.77;101421.72;5121144;28;20045;-58
2022/03/12 03:53:52;;;;;;;2.05;1.85;;;;;;;17.68;36.70;101421.72;5120227;28;20027;-57
2022/03/12 03:56:18;;;;;;;2.42;2.00;;;;;;;17.70;36.97;101431.31;5121198;28;20061;-58
2022/03/12 03:58:44;;;;;;;2.03;1.80;;;;;;;17.70;36.99;101431.31;5120865;28;20601;-59
2022/03/12 04:01:17;;;;;;;3.47;1.80;;;;;;;17.70;36.77;101419.72;5120763;28;20059;-59
2022/03/12 04:03:49;;;;;;;2.30;2.05;;;;;;;17.68;36.94;101427.09;5127582;28;20028;-59
2022/03/12 04:06:16;;;;;;;2.92;2.03;;;;;;;17.68;36.81;101429.78;5126811;28;20179;-59
2022/03/12 04:08:42;;;;;;;2.50;1.60;;;;;;;17.67;36.91;101436.13;5126555;28;20038;-60
2022/03/12 04:11:13;;;;;;;2.35;1.80;;;;;;;17.64;36.80;101429.22;5126582;28;20020;-59
2022/03/12 04:13:39;;;;;;;2.63;2.08;;;;;;;17.65;36.96;101436.28;5120479;28;20031;-59
2022/03/12 04:16:06;;;;;;;2.08;1.70;;;;;;;17.64;36.98;101442.69;5118962;28;20354;-59
2022/03/12 04:18:32;;;;;;;2.22;1.67;;;;;;;17.64;36.84;101447.22;5120841;28;20548;-59
2022/03/12 04:20:57;;;;;;;1.50;1.30;;;;;;;17.63;36.94;101437.47;5119068;28;20077;-58
2022/03/12 04:23:25;;;;;;;2.05;1.85;;;;;;;17.63;36.92;101437.47;5120234;28;20072;-58
2022/03/12 04:25:53;;;;;;;2.42;2.10;;;;;;;17.62;36.97;101441.97;5120301;28;20024;-59
2022/03/12 04:28:19;;;;;;;2.60;1.75;;;;;;;17.62;36.97;101443.81;5120482;28;20570;-59
2022/03/12 04:30:44;;;;;;;2.08;1.75;;;;;;;17.61;37.04;101442.97;5119319;28;20114;-59
2022/03/12 04:33:10;;;;;;;2.15;1.92;;;;;;;17.60;36.85;101452.03;5120504;28;20619;-59
2022/03/12 04:35:36;;;;;;;1.92;1.73;;;;;;;17.56;36.89;101450.63;5120425;28;20034;-55
2022/03/12 04:38:03;;;;;;;1.92;1.75;;;;;;;17.58;36.87;101437.88;5120389;28;20118;-60
2022/03/12 04:40:29;;;;;;;2.20;1.92;;;;;;;17.55;36.97;101440.88;5120186;28;20030;-59
2022/03/12 04:42:54;;;;;;;1.92;1.73;;;;;;;17.55;36.91;101443.56;5120313;28;20024;-57
2022/03/12 04:45:21;;;;;;;1.70;1.60;;;;;;;17.56;36.97;101449.78;5119126;28;20040;-59
2022/03/12 04:47:48;;;;;;;2.47;2.10;;;;;;;17.54;36.98;101441.00;5120329;28;20039;-59
2022/03/12 04:50:15;;;;;;;2.78;2.00;;;;;;;17.54;36.95;101451.75;5118739;28;20028;-59
2022/03/12 04:52:42;;;;;;;1.90;1.63;;;;;;;17.53;36.95;101461.66;5119949;28;20030;-58
2022/03/12 04:55:12;;;;;;;2.35;1.95;;;;;;;17.52;36.96;101451.91;5120022;28;20023;-58
2022/03/12 04:57:39;;;;;;;2.03;1.80;;;;;;;17.48;37.01;101459.41;5119871;28;20062;-60
2022/03/12 05:00:17;;;;;;;1.80;1.45;;;;;;;17.51;36.97;101469.03;5119376;28;20022;-58
2022/03/12 05:02:44;;;;;;;2.72;1.70;;;;;;;17.49;37.07;101461.09;5120029;28;20023;-58
2022/03/12 05:05:14;;;;;;;2.95;2.15;;;;;;;17.51;36.98;101468.19;5118388;28;20126;-58
2022/03/12 05:07:46;;;;;;;2.55;1.80;;;;;;;17.50;36.84;101470.03;5119928;28;20087;-58
2022/03/12 05:10:17;;;;;;;2.75;1.95;;;;;;;17.48;36.98;101466.63;5119669;28;20043;-58
2022/03/12 05:12:48;;;;;;;2.10;1.73;;;;;;;17.47;37.11;101468.47;5120309;28;20027;-58
2022/03/12 05:15:14;;;;;;;2.00;1.60;;;;;;;17.47;37.18;101478.41;5118914;28;20030;-57
2022/03/12 05:17:47;;;;;;;1.73;1.63;;;;;;;17.45;37.08;101473.13;5119712;28;20027;-58
2022/03/12 05:20:18;;;;;;;1.65;1.55;;;;;;;17.44;37.12;101474.16;5120082;28;20035;-58
2022/03/12 05:22:43;;;;;;;1.85;1.70;;;;;;;17.43;37.07;101474.28;5119859;28;20032;-57
2022/03/12 05:25:09;;;;;;;2.00;1.75;;;;;;;17.41;36.97;101469.03;5119104;28;20038;-58
2022/03/12 05:27:34;;;;;;;2.15;1.65;;;;;;;17.43;37.14;101479.69;5123344;28;20083;-57
2022/03/12 05:30:00;;;;;;;2.30;1.70;;;;;;;17.43;37.10;101479.69;5122757;28;20035;-58
2022/03/12 05:32:25;;;;;;;2.17;1.70;;;;;;;17.43;36.68;101485.06;5123449;28;20548;-58
2022/03/12 05:34:50;;;;;;;1.85;1.75;;;;;;;17.42;37.07;101486.06;5123592;28;20488;-58
2022/03/12 05:37:16;;;;;;;2.63;2.20;;;;;;;17.41;37.08;101487.88;5123548;28;20035;-58
2022/03/12 05:39:41;;;;;;;2.40;1.67;;;;;;;17.42;37.09;101488.75;5121935;28;20031;-58
2022/03/12 05:42:08;;;;;;;2.03;1.73;;;;;;;17.38;37.10;101488.19;5123043;28;20478;-58
2022/03/12 05:44:34;;;;;;;3.70;2.00;;;;;;;17.39;36.94;101486.34;5121941;28;20038;-58
2022/03/12 05:47:00;;;;;;;2.38;2.00;;;;;;;17.41;37.19;101493.25;5122109;28;20027;-58
2022/03/12 05:49:26;;;;;;;2.65;1.90;;;;;;;17.41;37.02;101490.56;5122796;28;20027;-58
2022/03/12 05:51:51;;;;;;;2.92;2.42;;;;;;;17.42;37.15;101492.28;5122409;28;20208;-57
2022/03/12 05:54:16;;;;;;;2.60;2.15;;;;;;;17.43;37.18;101498.50;5122182;28;20028;-56
2022/03/12 05:56:41;;;;;;;2.65;2.28;;;;;;;17.43;37.06;101504.72;5122573;28;20023;-58
2022/03/12 05:59:07;;;;;;;3.22;2.40;;;;;;;17.40;37.13;101502.31;5121713;28;20136;-58
2022/03/12 06:01:33;;;;;;;2.95;2.13;;;;;;;17.45;37.17;101512.63;5122292;28;20023;-58
2022/03/12 06:04:00;;;;;;;3.17;2.22;;;;;;;17.45;37.28;101501.88;5122221;28;20115;-58
2022/03/12 06:06:27;;;;;;;3.00;2.35;;;;;;;17.46;37.17;101511.66;5118091;28;20023;-57
2022/03/12 06:08:53;;;;;;;2.75;2.20;;;;;;;17.46;37.37;101507.13;5122075;28;20058;-57
2022/03/12 06:11:18;;;;;;;3.13;2.83;;;;;;;17.48;37.24;101515.88;5122381;28;20126;-57
2022/03/12 06:13:50;;;;;;;3.00;2.33;;;;;;;17.49;37.37;101501.44;5122009;28;20197;-55
2022/03/12 06:16:15;;;;;;;3.58;2.60;;;;;;;17.51;37.32;101505.84;5121075;28;20028;-58
2022/03/12 06:18:41;;;;;;;4.28;2.80;;;;;;;17.52;37.39;101507.53;5122360;28;20085;-57
2022/03/12 06:21:06;;;;;;;2.60;2.22;;;;;;;17.54;37.42;101516.28;5121740;28;20079;-57
2022/03/12 06:23:32;;;;;;;3.72;2.65;;;;;;;17.55;37.45;101510.78;5121692;28;21140;-57
2022/03/12 06:25:57;;;;;;;3.53;2.78;;;;;;;17.57;37.34;101516.00;5121528;28;20055;-57
2022/03/12 06:28:23;;;;;;;3.10;2.70;;;;;;;17.44;37.67;101492.97;5111487;28;20374;-57
2022/03/12 06:30:52;;;;;;;3.47;2.75;;;;;;;17.60;37.76;101523.78;5101243;28;20038;-58
2022/03/12 06:33:18;;;;;;;2.45;2.25;;;;;;;17.62;37.79;101528.00;5114670;28;20042;-58
2022/03/12 06:35:43;;;;;;;3.10;2.80;;;;;;;17.63;37.75;101524.34;5106374;28;20024;-58
2022/03/12 06:38:10;;;;;;;3.20;2.67;;;;;;;17.65;37.80;101527.72;5120311;28;20715;-58
2022/03/12 06:40:36;;;;;;;3.42;2.70;;;;;;;17.70;37.79;101532.66;5121682;28;20592;-57
2022/03/12 06:43:05;;;;;;;3.65;2.70;;;;;;;17.72;37.74;101536.06;5116836;28;20756;-58
2022/03/12 06:45:32;;;;;;;;;;;;;;;17.71;37.60;101537.03;5101014;28;20047;-54
2022/03/12 06:47:57;;;;;;;2.67;2.42;;;;;;;17.75;37.72;101538.47;5119053;28;19908;-58
2022/03/12 06:50:24;;;;;;;3.38;2.67;;;;;;;17.77;37.67;101546.44;5119822;28;20024;-58
2022/03/12 06:52:50;;;;;;;2.92;2.20;;;;;;;17.78;37.74;101540.03;5120392;28;20096;-56
2022/03/12 06:55:17;;;;;;;3.65;3.15;;;;;;;17.77;37.67;101541.91;5121137;28;20020;-58
2022/03/12 06:57:43;;;;;;;3.72;2.53;;;;;;;17.82;37.48;101553.06;5121075;28;20032;-58
2022/03/12 07:00:13;;;;;;;3.63;2.65;;;;;;;17.84;37.46;101545.69;5106964;28;20024;-56
2022/03/12 07:02:38;;;;;;;3.55;2.60;;;;;;;17.86;37.55;101543.69;5101889;28;20378;-57
2022/03/12 07:05:04;;;;;;;4.05;2.88;;;;;;;17.89;37.44;101550.66;5101184;28;20024;-58
2022/03/12 07:07:29;;;;;;;2.80;2.40;;;;;;;17.90;37.57;101545.09;5101094;28;20068;-58
2022/03/12 07:09:54;;;;;;;2.97;2.38;;;;;;;17.88;37.46;101538.16;5100617;28;20016;-58
2022/03/12 07:12:19;;;;;;;3.97;2.60;;;;;;;17.96;37.61;101552.56;5100888;28;20020;-58
2022/03/12 07:14:45;;;;;;;3.22;2.58;;;;;;;17.98;37.16;101550.59;5116635;28;20045;-56
2022/03/12 07:17:10;;;;;;;4.18;3.15;;;;;;;17.98;37.28;101549.75;5120572;28;20012;-58
2022/03/12 07:19:35;;;;;;;3.70;2.97;;;;;;;18.04;37.06;101556.38;5121060;28;20024;-56
2022/03/12 07:22:01;;;;;;;3.80;3.20;;;;;;;18.04;37.17;101557.22;5120817;27;20051;-57
2022/03/12 07:24:26;;;;;;;3.55;3.13;;;;;;;18.11;37.00;101563.72;5120452;28;20034;-58
2022/03/12 07:26:51;;;;;;;2.83;2.50;;;;;;;18.15;37.00;101566.97;5120674;28;20043;-58
2022/03/12 07:29:17;;;;;;;3.38;2.35;;;;;;;18.20;36.98;101573.59;5119559;28;20428;-56
2022/03/12 07:31:42;;;;;;;4.38;2.88;;;;;;;18.24;36.79;101575.00;5120845;28;20415;-58
2022/03/12 07:34:07;;;;;;;3.17;2.50;;;;;;;18.31;36.93;101572.59;5121118;28;20031;-57
2022/03/12 07:36:33;;;;;;;3.38;2.60;;;;;;;18.39;36.55;101580.75;5120683;28;20026;-58
2022/03/12 07:38:58;;;;;;;5.32;2.72;;;;;;;18.45;36.37;101579.31;5120318;28;20035;-57
2022/03/12 07:41:25;;;;;;;3.15;2.55;;;;;;;18.49;36.47;101581.56;5121040;28;20031;-57
2022/03/12 07:43:50;;;;;;;2.72;2.30;;;;;;;18.55;36.12;101587.34;5117213;28;20055;-57
2022/03/12 07:46:16;;;;;;;2.92;2.58;;;;;;;18.56;36.04;101587.16;5119340;28;20039;-58
2022/03/12 07:48:41;;;;;;;3.13;2.38;;;;;;;18.64;35.93;101591.81;5117151;28;20123;-58
2022/03/12 07:51:07;;;;;;;3.28;2.75;;;;;;;18.67;35.96;101586.13;5099732;28;20031;-57
2022/03/12 07:53:33;;;;;;;4.03;3.20;;;;;;;18.71;35.79;101587.56;5106477;28;20106;-57
2022/03/12 07:55:59;;;;;;;3.65;3.28;;;;;;;18.75;35.94;101588.13;5119574;28;20047;-57
2022/03/12 07:58:27;;;;;;;3.17;2.78;;;;;;;18.83;35.82;101588.22;5115365;28;20057;-58
2022/03/12 08:00:54;;;;;;;2.42;2.22;;;;;;;18.91;35.81;101597.22;5117692;28;20024;-57
2022/03/12 08:03:19;;;;;;;3.03;2.30;;;;;;;19.01;35.34;101586.38;5118276;28;20062;-58
2022/03/12 08:05:44;;;;;;;2.50;2.17;;;;;;;19.09;35.24;101599.09;5119555;28;20476;-58
2022/03/12 08:08:09;;;;;;;2.33;2.13;;;;;;;19.12;35.15;101596.09;5119676;28;20467;-57
2022/03/12 08:11:24;;;;;;;3.42;2.70;;;;;;;19.16;35.38;101602.88;5118549;28;20578;-58
2022/03/12 08:13:21;;;;;;;3.88;2.63;;;;;;;19.22;35.18;101604.94;5119631;28;20059;-56
2022/03/12 08:15:49;;;;;;;3.75;2.75;;;;;;;19.30;35.21;101604.19;5118964;28;20029;-58
2022/03/12 08:18:14;;;;;;;2.92;2.38;;;;;;;19.44;35.02;101615.25;5117738;28;20051;-58
2022/03/12 08:20:40;;;;;;;3.25;2.40;;;;;;;19.54;34.54;101617.88;5119779;28;20597;-58
2022/03/12 08:23:05;;;;;;;2.60;2.20;;;;;;;19.61;34.50;101613.56;5120616;28;20155;-56
2022/03/12 08:25:30;;;;;;;4.72;2.30;;;;;;;19.67;34.19;101612.97;5119930;28;20032;-58
2022/03/12 08:27:56;;;;;;;3.70;2.45;;;;;;;19.78;34.18;101621.81;5120445;28;20035;-53
2022/03/12 08:30:21;;;;;;;2.60;2.13;;;;;;;19.86;33.93;101621.88;5119894;28;20109;-57
2022/03/12 08:32:46;;;;;;;4.05;2.45;;;;;;;19.96;33.63;101633.41;5120406;28;20065;-57
2022/03/12 08:35:12;;;;;;;3.33;2.50;;;;;;;20.04;33.47;101630.75;5120208;28;20024;-58
2022/03/12 08:37:39;;;;;;;3.08;2.30;;;;;;;20.11;33.53;101637.22;5120270;28;20028;-57
2022/03/12 08:40:06;;;;;;;2.92;2.20;;;;;;;20.16;33.33;101637.59;5119556;28;20051;-58
2022/03/12 08:42:32;;;;;;;2.63;2.15;;;;;;;20.25;33.24;101643.03;5119789;28;20095;-58
2022/03/12 08:44:58;;;;;;;2.92;2.10;;;;;;;20.38;33.09;101644.28;5112430;28;20073;-58
2022/03/12 08:47:23;;;;;;;4.25;2.80;;;;;;;20.59;32.51;101645.78;5119860;28;20480;-58
2022/03/12 08:49:49;;;;;;;3.30;2.33;;;;;;;20.84;32.35;101650.28;5107672;28;20184;-58
2022/03/12 08:52:14;;;;;;;2.35;1.90;;;;;;;21.10;32.06;101660.16;5102947;28;20032;-58
2022/03/12 08:54:39;;;;;;;2.53;1.80;;;;;;;21.30;31.56;101660.72;5103026;28;20036;-57
2022/03/12 08:57:05;;;;;;;2.03;1.83;;;;;;;21.44;31.43;101657.38;5103075;28;20278;-57
2022/03/12 08:59:30;;;;;;;2.97;2.25;;;;;;;21.63;31.29;101659.78;5102702;28;20091;-58
2022/03/12 09:01:55;;;;;;;3.08;2.22;;;;;;;21.79;30.86;101658.06;5104867;28;20118;-58
2022/03/12 09:04:22;;;;;;;3.10;2.13;;;;;;;;;;5123574;28;20601;-58
2022/03/12 09:06:47;;;;;;;2.85;2.20;;;;;;;22.13;30.12;101655.19;5123560;27;20076;-58
2022/03/12 09:09:13;;;;;;;3.33;2.35;;;;;;;22.26;30.00;101666.38;5123035;28;20031;-58
2022/03/12 09:11:39;;;;;;;2.78;1.92;;;;;;;22.38;30.00;101664.97;5123444;28;20383;-57
2022/03/12 09:14:04;;;;;;;2.67;1.77;;;;;;;22.41;29.88;101661.06;5122329;28;20023;-58
2022/03/12 09:16:30;;;;;;;2.95;1.95;;;;;;;22.42;30.12;101660.88;5123112;27;20027;-55
2022/03/12 09:18:55;;;;;;;3.13;2.15;;;;;;;22.40;30.19;101662.09;5123501;28;20067;-57
2022/03/12 09:21:20;;;;;;;2.65;2.03;;;;;;;22.39;29.97;101666.69;5122641;28;20051;-58
2022/03/12 09:23:46;;;;;;;2.63;2.20;;;;;;;22.38;30.17;101659.53;5123163;28;20051;-58
2022/03/12 09:26:13;;;;;;;2.67;2.10;;;;;;;22.46;30.13;101666.81;5122318;28;20043;-57
2022/03/12 09:28:39;;;;;;;3.28;1.85;;;;;;;22.56;29.77;101666.63;5120394;28;20023;-59
2022/03/12 09:31:06;;;;;;;3.10;2.00;;;;;;;22.68;30.22;101659.78;5122192;27;20083;-58
2022/03/12 09:33:31;;;;;;;3.03;2.40;;;;;;;22.87;29.84;101664.81;5123033;28;20016;-57
2022/03/12 09:35:57;;;;;;;2.42;1.60;;;;;;;23.08;29.27;101666.94;5122869;28;20111;-58
2022/03/12 09:38:23;;;;;;;2.35;1.67;;;;;;;23.26;28.78;101663.09;5122835;27;20056;-57
2022/03/12 09:40:49;;;;;;;2.75;2.00;;;;;;;23.41;28.64;101662.16;5122371;28;20186;-58
2022/03/12 09:43:14;;;;;;;2.33;1.83;;;;;;;23.54;28.16;101663.44;5123001;28;20020;-58
2022/03/12 09:45:39;;;;;;;2.85;1.73;;;;;;;23.64;28.62;101666.72;5121460;28;20031;-57
2022/03/12 09:48:05;;;;;;;2.53;1.65;;;;;;;23.73;28.22;101679.25;5122935;28;20035;-57
2022/03/12 09:50:31;;;;;;;4.25;2.25;;;;;;;23.79;28.23;101675.81;5122904;28;20026;-57
2022/03/12 09:52:56;;;;;;;2.80;1.60;;;;;;;23.92;28.10;101680.63;5123661;28;20039;-57
2022/03/12 09:55:22;;;;;;;2.28;1.50;;;;;;;24.01;28.24;101675.97;5122517;28;20062;-58
2022/03/12 09:57:48;;;;;;;2.60;1.75;;;;;;;24.06;27.93;101678.97;5115500;28;20083;-58
2022/03/12 10:00:15;;;;;;;2.65;2.00;;;;;;;24.06;27.69;101677.09;5120952;28;20486;-58
2022/03/12 10:02:40;;;;;;;2.75;1.98;;;;;;;23.97;27.64;101675.47;5122731;28;20066;-58
2022/03/12 10:05:07;;;;;;;2.92;1.67;;;;;;;23.74;27.99;101672.78;5122573;28;20031;-58
2022/03/12 10:07:32;;;;;;;2.65;2.10;;;;;;;23.45;28.14;101666.19;5122403;28;20019;-56
2022/03/12 10:09:57;;;;;;;2.85;2.00;;;;;;;23.15;28.71;101676.06;5122082;28;20034;-57
2022/03/12 10:12:23;;;;;;;3.63;2.05;;;;;;;22.90;29.09;101669.06;5121898;28;20096;-57
2022/03/12 10:14:49;;;;;;;2.33;1.70;;;;;;;22.64;29.01;101666.59;5121976;28;20054;-58
2022/03/12 10:17:16;;;;;;;2.13;1.63;;;;;;;22.47;29.46;101671.22;5122254;28;20016;-58
2022/03/12 10:19:43;;;;;;;2.67;1.90;;;;;;;22.33;29.87;101680.91;5121079;28;20019;-59
2022/03/12 10:22:09;;;;;;;3.22;1.98;;;;;;;22.17;30.06;101678.22;5118338;28;20043;-58
2022/03/12 10:24:35;;;;;;;2.72;1.90;;;;;;;22.07;30.00;101683.78;5122154;28;20084;-57
2022/03/12 10:27:01;;;;;;;1.92;1.60;;;;;;;;;;5121953;28;20034;-57
2022/03/12 10:29:26;;;;;;;2.67;2.20;;;;;;;21.89;30.17;101675.84;5121359;28;20436;-57
2022/03/12 10:31:52;;;;;;;2.38;1.73;;;;;;;21.82;30.35;101685.66;5121172;28;20030;-58
2022/03/12 10:34:23;;;;;;;2.53;1.70;;;;;;;21.78;30.90;101688.88;5122184;28;20019;-58
2022/03/12 10:36:54;;;;;;;2.63;1.92;;;;;;;21.73;30.85;101683.13;5122009;28;20023;-58
2022/03/12 10:39:36;;;;;;;2.15;1.77;;;;;;;21.68;30.67;101683.63;5122245;28;20440;-58
2022/03/12 10:42:07;;;;;;;3.08;1.95;;;;;;;21.64;31.17;101674.16;5122431;28;20495;-58
2022/03/12 10:44:37;;;;;;;2.05;1.73;;;;;;;21.60;31.24;101679.06;5120756;28;20445;-57
2022/03/12 10:47:08;;;;;;;2.22;1.73;;;;;;;21.59;31.26;101676.53;5121267;28;20024;-58
2022/03/12 10:49:34;;;;;;;2.83;1.92;;;;;;;21.58;31.31;101680.22;5119965;28;20027;-57
2022/03/12 10:51:59;;;;;;;2.80;1.98;;;;;;;21.56;31.34;101693.94;5121536;28;20091;-59
2022/03/12 10:54:25;;;;;;;2.33;1.63;;;;;;;21.55;31.45;101691.41;5120789;28;20172;-58
2022/03/12 10:56:54;;;;;;;1.83;1.65;;;;;;;21.56;31.53;101693.09;5121446;28;21495;-58
2022/03/12 10:59:22;;;;;;;2.17;1.67;;;;;;;21.55;31.50;101686.00;5118335;28;20027;-59
2022/03/12 11:01:58;;;;;;;2.97;2.00;;;;;;;21.47;31.80;101678.72;5120353;28;20031;-59
2022/03/12 11:04:26;;;;;;;1.88;1.55;;;;;;;21.52;32.12;101691.72;5118167;28;20023;-59
2022/03/12 11:06:52;;;;;;;2.10;1.70;;;;;;;21.51;31.94;101699.00;5121456;28;20024;-59
2022/03/12 11:09:30;;;;;;;2.72;1.80;;;;;;;21.50;32.26;101699.19;5120225;28;20026;-59
2022/03/12 11:11:57;;;;;;;2.55;1.83;;;;;;;21.50;32.56;101704.59;5120896;28;20495;-59
2022/03/12 11:14:23;;;;;;;2.47;2.08;;;;;;;21.48;32.60;101709.31;5119767;28;20023;-59
2022/03/12 11:16:55;;;;;;;2.40;1.90;;;;;;;21.46;32.53;101706.78;5120571;28;20098;-59
2022/03/12 11:19:40;;;;;;;2.92;2.28;;;;;;;21.46;32.92;101712.19;5121443;28;20039;-59
2022/03/12 11:22:14;;;;;;;2.40;1.73;;;;;;;21.43;33.08;101705.25;5120314;28;20069;-59
2022/03/12 11:24:43;;;;;;;2.60;2.20;;;;;;;21.41;32.90;101706.44;5119315;28;20027;-58